Time;durP1;ratioP1;P1;durP2;ratioP2;P2;SDS_P1;SDS_P2;PMS_P1;PMS_P2;Temp;Humidity;BMP_temperature;BMP_pressure;BME280_temperature;BME280_humidity;BME280_pressure;Samples;Min_cycle;Max_cycle;Signal;HPM_P1;HPM_P2
2022/12/16 00:00:40;;;;;;;49.08;24.63;;;-4.90;99.90;;;;;;5038668;28;20737;-81
2022/12/16 00:03:07;;;;;;;48.45;26.98;;;-4.80;99.90;;;;;;5025920;28;20222;-84
2022/12/16 00:05:36;;;;;;;44.80;24.73;;;-4.80;99.90;;;;;;5013044;28;20234;-84
2022/12/16 00:08:03;;;;;;;50.42;24.63;;;-4.80;99.90;;;;;;5009877;28;20198;-84
2022/12/16 00:10:51;;;;;;;50.35;24.98;;;-4.80;99.90;;;;;;5019668;23;20327;-82
2022/12/16 00:13:16;;;;;;;59.72;24.98;;;-4.80;99.90;;;;;;5006328;28;20198;-83
2022/12/16 00:15:45;;;;;;;46.17;24.65;;;-4.80;99.90;;;;;;5018863;28;20207;-82
2022/12/16 00:18:12;;;;;;;40.55;23.38;;;-4.70;99.90;;;;;;5017503;28;20218;-83
2022/12/16 00:20:44;;;;;;;48.25;22.92;;;-4.70;99.90;;;;;;4999807;28;20242;-82
2022/12/16 00:23:11;;;;;;;49.33;25.67;;;-4.70;99.90;;;;;;5024373;28;20285;-83
2022/12/16 00:25:38;;;;;;;45.15;24.80;;;-4.70;99.90;;;;;;5023520;28;20213;-83
2022/12/16 00:28:04;;;;;;;43.28;22.50;;;-4.80;99.90;;;;;;5021673;28;20646;-82
2022/12/16 00:30:31;;;;;;;47.85;22.63;;;-4.80;99.90;;;;;;5029722;28;20235;-79
2022/12/16 00:32:59;;;;;;;37.15;22.10;;;-4.80;99.90;;;;;;5023204;28;20201;-80
2022/12/16 00:35:26;;;;;;;40.97;21.25;;;-4.80;99.90;;;;;;5020953;28;20203;-81
2022/12/16 00:37:53;;;;;;;43.17;21.80;;;-4.80;99.90;;;;;;5021393;28;20277;-81
2022/12/16 00:40:20;;;;;;;39.88;22.45;;;-4.80;99.90;;;;;;5037043;28;20321;-81
2022/12/16 00:42:46;;;;;;;41.42;22.88;;;-4.80;99.90;;;;;;5033261;28;20229;-81
2022/12/16 00:45:14;;;;;;;40.30;21.00;;;-4.80;99.90;;;;;;5030970;28;20210;-82
2022/12/16 00:47:40;;;;;;;37.17;22.98;;;-4.90;99.90;;;;;;5034778;28;20210;-81
2022/12/16 00:50:10;;;;;;;36.17;21.38;;;-4.80;99.90;;;;;;5016434;28;20234;-81
2022/12/16 00:52:38;;;;;;;37.38;19.25;;;-4.80;99.90;;;;;;5018274;28;20211;-81
2022/12/16 00:55:06;;;;;;;40.97;19.52;;;-4.80;99.90;;;;;;5024649;28;20203;-82
2022/12/16 00:57:34;;;;;;;40.30;21.83;;;-4.80;99.90;;;;;;5022055;28;20570;-81
2022/12/16 01:00:03;;;;;;;31.15;18.20;;;-4.80;99.90;;;;;;5042677;28;20244;-81
2022/12/16 01:02:29;;;;;;;36.30;21.48;;;-4.80;99.90;;;;;;5043215;28;20226;-80
2022/12/16 01:04:56;;;;;;;41.53;19.10;;;-4.80;99.90;;;;;;5030076;28;20312;-81
2022/12/16 01:07:25;;;;;;;36.08;19.60;;;-4.70;99.90;;;;;;5033727;28;20678;-80
2022/12/16 01:09:51;;;;;;;38.30;18.75;;;-4.70;99.90;;;;;;5018873;28;20749;-79
2022/12/16 01:12:18;;;;;;;33.42;18.50;;;-4.70;99.90;;;;;;5014306;28;20213;-80
2022/12/16 01:14:45;;;;;;;44.40;19.98;;;-4.70;99.90;;;;;;5014166;28;20643;-80
2022/12/16 01:17:12;;;;;;;39.65;19.33;;;-4.70;99.90;;;;;;5013956;28;20207;-80
2022/12/16 01:19:39;;;;;;;36.95;19.10;;;-4.70;99.90;;;;;;5024219;28;20222;-79
2022/12/16 01:22:05;;;;;;;33.38;18.70;;;-4.70;99.90;;;;;;5033569;28;20202;-80
2022/12/16 01:24:34;;;;;;;28.02;16.30;;;-4.70;99.90;;;;;;5027880;28;20206;-80
2022/12/16 01:27:00;;;;;;;35.30;16.83;;;-4.70;99.90;;;;;;5033742;28;20206;-78
2022/12/16 01:29:27;;;;;;;33.83;17.67;;;-4.70;99.90;;;;;;5021997;28;20229;-81
2022/12/16 01:31:54;;;;;;;37.13;17.35;;;-4.70;99.90;;;;;;5014041;28;20696;-80
2022/12/16 01:34:21;;;;;;;41.67;18.52;;;-4.70;99.90;;;;;;5017146;28;20194;-80
2022/12/16 01:36:47;;;;;;;33.80;17.38;;;-4.70;99.90;;;;;;5016231;28;20205;-80
2022/12/16 01:39:14;;;;;;;32.13;17.63;;;-4.80;99.90;;;;;;5032437;28;20228;-79
2022/12/16 01:41:42;;;;;;;32.75;17.48;;;-4.80;99.90;;;;;;5032324;28;20238;-81
2022/12/16 01:44:15;;;;;;;30.73;16.55;;;-4.90;99.90;;;;;;5014509;28;20218;-80
2022/12/16 01:46:42;;;;;;;31.42;17.85;;;-4.90;99.90;;;;;;5013908;28;20268;-80
2022/12/16 01:49:22;;;;;;;30.73;17.85;;;-4.90;99.90;;;;;;5032612;28;20603;-82
2022/12/16 01:51:49;;;;;;;31.17;18.45;;;-5.00;99.90;;;;;;5032328;28;20205;-81
2022/12/16 01:54:21;;;;;;;33.15;17.17;;;-4.90;99.90;;;;;;5017858;28;20198;-80
2022/12/16 01:57:02;;;;;;;38.95;17.48;;;-4.90;99.90;;;;;;5033474;28;20206;-80
2022/12/16 01:59:32;;;;;;;30.70;14.45;;;-5.00;99.90;;;;;;5032356;28;20234;-81
2022/12/16 02:01:59;;;;;;;34.13;17.63;;;-5.00;99.90;;;;;;5033296;28;20333;-82
2022/12/16 02:04:26;;;;;;;32.50;17.25;;;-5.00;99.90;;;;;;5027955;28;20219;-80
2022/12/16 02:06:53;;;;;;;31.35;16.88;;;-5.00;99.90;;;;;;5013898;28;20209;-81
2022/12/16 02:09:21;;;;;;;31.58;15.52;;;-5.00;99.90;;;;;;5013029;28;20235;-81
2022/12/16 02:12:11;;;;;;;32.83;16.17;;;-5.00;99.90;;;;;;5013826;28;20215;-81
2022/12/16 02:14:59;;;;;;;27.80;14.90;;;-5.10;99.90;;;;;;5007482;28;20196;-80
2022/12/16 02:17:34;;;;;;;30.88;16.13;;;-5.10;99.90;;;;;;5018358;28;20201;-81
2022/12/16 02:20:30;;;;;;;29.70;15.85;;;-5.10;99.90;;;;;;5014543;28;20230;-81
2022/12/16 02:23:18;;;;;;;26.98;15.60;;;-5.10;99.90;;;;;;5031568;28;20226;-81
2022/12/16 02:26:15;;;;;;;30.63;14.95;;;-5.10;99.90;;;;;;5021467;28;20241;-82
2022/12/16 02:29:07;;;;;;;26.77;15.35;;;-5.10;99.90;;;;;;5015796;28;20203;-81
2022/12/16 02:31:42;;;;;;;28.50;14.13;;;-5.10;99.90;;;;;;5018674;28;20716;-82
2022/12/16 02:34:19;;;;;;;31.70;15.30;;;-5.20;99.90;;;;;;5034952;28;20198;-81
2022/12/16 02:36:59;;;;;;;28.98;13.68;;;-5.30;99.90;;;;;;5019501;28;20612;-81
2022/12/16 02:39:35;;;;;;;30.73;14.68;;;-5.20;99.90;;;;;;5036709;28;20226;-81
2022/12/16 02:42:09;;;;;;;34.72;17.08;;;-5.20;99.90;;;;;;5033567;28;20625;-81
2022/12/16 02:44:43;;;;;;;30.85;14.20;;;-5.20;99.90;;;;;;5023669;28;20213;-81
2022/12/16 02:47:11;;;;;;;34.45;13.98;;;-5.20;99.90;;;;;;5032604;28;20277;-81
2022/12/16 02:49:50;;;;;;;26.42;14.45;;;-5.30;99.90;;;;;;5016459;28;20838;-80
2022/12/16 02:52:21;;;;;;;31.08;13.43;;;-5.30;99.90;;;;;;5021646;28;20852;-82
2022/12/16 02:54:51;;;;;;;29.60;15.18;;;-5.30;99.90;;;;;;5029632;28;20198;-80
2022/12/16 02:57:31;;;;;;;26.23;13.93;;;-5.30;99.90;;;;;;5017220;28;20290;-81
2022/12/16 03:00:03;;;;;;;23.77;13.07;;;-5.30;99.90;;;;;;5016513;28;20226;-80
2022/12/16 03:02:41;;;;;;;26.38;13.20;;;-5.30;99.90;;;;;;5017309;28;20294;-81
2022/12/16 03:05:15;;;;;;;25.40;13.20;;;-5.40;99.90;;;;;;5026228;28;20190;-81
2022/12/16 03:07:44;;;;;;;30.13;14.50;;;-5.40;99.90;;;;;;5030882;28;20237;-80
2022/12/16 03:10:17;;;;;;;24.40;13.43;;;-5.40;99.90;;;;;;5016517;28;20239;-81
2022/12/16 03:12:45;;;;;;;20.60;12.50;;;-5.40;99.90;;;;;;5023567;28;20198;-81
2022/12/16 03:15:15;;;;;;;26.38;14.00;;;-5.30;99.90;;;;;;5026835;28;20289;-80
2022/12/16 03:17:46;;;;;;;27.05;13.70;;;-5.30;99.90;;;;;;5020909;28;20297;-81
2022/12/16 03:20:18;;;;;;;25.60;13.23;;;-5.40;99.90;;;;;;5034902;28;20229;-81
2022/12/16 03:22:48;;;;;;;30.00;16.48;;;-5.40;99.90;;;;;;5032198;28;20213;-81
2022/12/16 03:25:15;;;;;;;28.50;13.75;;;-5.40;99.90;;;;;;5027061;28;20210;-80
2022/12/16 03:27:52;;;;;;;23.38;11.93;;;-5.50;99.90;;;;;;5031622;28;20671;-80
2022/12/16 03:30:23;;;;;;;24.30;13.35;;;-5.40;99.90;;;;;;5016918;28;20237;-80
2022/12/16 03:32:58;;;;;;;23.65;13.48;;;-5.40;99.90;;;;;;5019861;28;20199;-82
2022/12/16 03:35:30;;;;;;;25.77;14.23;;;-5.50;99.90;;;;;;5025101;28;20536;-81
2022/12/16 03:38:00;;;;;;;31.63;13.57;;;-5.50;99.90;;;;;;5032670;28;20631;-81
2022/12/16 03:40:28;;;;;;;25.70;13.85;;;-5.50;99.90;;;;;;5036365;28;20226;-82
2022/12/16 03:42:56;;;;;;;23.60;11.55;;;-5.50;99.90;;;;;;5020329;28;20636;-82
2022/12/16 03:45:26;;;;;;;21.10;11.95;;;-5.50;99.90;;;;;;5027530;28;20209;-81
2022/12/16 03:47:58;;;;;;;26.65;10.75;;;-5.50;99.90;;;;;;5022132;28;20286;-81
2022/12/16 03:50:28;;;;;;;23.30;13.20;;;-5.50;99.90;;;;;;5015601;28;20226;-82
2022/12/16 03:52:56;;;;;;;26.20;12.50;;;-5.50;99.90;;;;;;5030976;28;20233;-81
2022/12/16 03:55:23;;;;;;;25.75;12.57;;;-5.50;99.90;;;;;;5017999;28;20213;-82
2022/12/16 03:57:50;;;;;;;24.67;14.50;;;-5.50;99.90;;;;;;5028909;28;20198;-82
2022/12/16 04:00:17;;;;;;;21.70;12.55;;;-5.60;99.90;;;;;;5035953;28;20229;-80
2022/12/16 04:02:44;;;;;;;21.92;12.00;;;-5.60;99.90;;;;;;5024330;28;20202;-81
2022/12/16 04:05:13;;;;;;;22.25;11.25;;;-5.60;99.90;;;;;;5025390;28;20740;-81
2022/12/16 04:07:40;;;;;;;24.55;12.40;;;-5.50;99.90;;;;;;5025772;28;20207;-81
2022/12/16 04:10:08;;;;;;;33.65;14.10;;;-5.50;99.90;;;;;;5015767;28;20239;-80
2022/12/16 04:26:27;;;;;;;25.63;13.63;;;-5.60;99.90;;;;;;5034645;28;20698;-80
2022/12/16 04:28:54;;;;;;;29.13;14.32;;;-5.60;99.90;;;;;;5036412;28;20206;-81
2022/12/16 04:31:21;;;;;;;19.40;12.27;;;-5.60;99.90;;;;;;5026506;28;20202;-81
